sensor_id;sensor_type;location;lat;lon;timestamp;P1;durP1;ratioP1;P2;durP2;ratioP2
31464;SDS011;18089;47.428;15.006;2023-03-30T00:00:35;19.63;;;17.27;;
31464;SDS011;18089;47.428;15.006;2023-03-30T00:03:07;19.90;;;17.97;;
31464;SDS011;18089;47.428;15.006;2023-03-30T00:05:40;20.57;;;17.07;;
31464;SDS011;18089;47.428;15.006;2023-03-30T00:08:13;18.20;;;16.30;;
31464;SDS011;18089;47.428;15.006;2023-03-30T00:10:47;19.17;;;17.17;;
31464;SDS011;18089;47.428;15.006;2023-03-30T00:13:19;21.90;;;19.67;;
31464;SDS011;18089;47.428;15.006;2023-03-30T00:15:51;21.90;;;19.67;;
31464;SDS011;18089;47.428;15.006;2023-03-30T00:18:23;25.13;;;19.87;;
31464;SDS011;18089;47.428;15.006;2023-03-30T00:20:56;22.07;;;19.07;;
31464;SDS011;18089;47.428;15.006;2023-03-30T00:23:30;23.13;;;18.77;;
31464;SDS011;18089;47.428;15.006;2023-03-30T00:26:02;20.70;;;18.60;;
31464;SDS011;18089;47.428;15.006;2023-03-30T00:28:36;21.13;;;18.73;;
31464;SDS011;18089;47.428;15.006;2023-03-30T00:31:08;23.60;;;18.97;;
31464;SDS011;18089;47.428;15.006;2023-03-30T00:33:40;24.47;;;19.37;;
31464;SDS011;18089;47.428;15.006;2023-03-30T00:36:13;20.70;;;18.10;;
31464;SDS011;18089;47.428;15.006;2023-03-30T00:38:47;22.40;;;18.57;;
31464;SDS011;18089;47.428;15.006;2023-03-30T00:41:19;22.63;;;18.80;;
31464;SDS011;18089;47.428;15.006;2023-03-30T00:43:55;23.90;;;18.47;;
31464;SDS011;18089;47.428;15.006;2023-03-30T00:46:29;20.70;;;16.57;;
31464;SDS011;18089;47.428;15.006;2023-03-30T00:49:02;20.60;;;17.37;;
31464;SDS011;18089;47.428;15.006;2023-03-30T00:51:38;21.43;;;18.57;;
31464;SDS011;18089;47.428;15.006;2023-03-30T00:54:13;19.97;;;17.50;;
31464;SDS011;18089;47.428;15.006;2023-03-30T00:56:47;21.07;;;18.67;;
31464;SDS011;18089;47.428;15.006;2023-03-30T00:59:19;22.10;;;17.80;;
31464;SDS011;18089;47.428;15.006;2023-03-30T01:01:51;23.47;;;18.93;;
31464;SDS011;18089;47.428;15.006;2023-03-30T01:04:24;20.47;;;18.13;;
31464;SDS011;18089;47.428;15.006;2023-03-30T01:06:57;20.60;;;17.87;;
31464;SDS011;18089;47.428;15.006;2023-03-30T01:09:31;20.20;;;18.03;;
31464;SDS011;18089;47.428;15.006;2023-03-30T01:12:03;20.87;;;17.47;;
31464;SDS011;18089;47.428;15.006;2023-03-30T01:14:35;22.93;;;19.17;;
31464;SDS011;18089;47.428;15.006;2023-03-30T01:17:09;19.97;;;17.80;;
31464;SDS011;18089;47.428;15.006;2023-03-30T01:19:56;20.23;;;18.13;;
31464;SDS011;18089;47.428;15.006;2023-03-30T01:29:03;21.50;;;19.23;;
31464;SDS011;18089;47.428;15.006;2023-03-30T01:31:47;21.40;;;19.00;;
31464;SDS011;18089;47.428;15.006;2023-03-30T01:34:33;20.77;;;18.67;;
31464;SDS011;18089;47.428;15.006;2023-03-30T01:40:34;24.33;;;19.13;;
31464;SDS011;18089;47.428;15.006;2023-03-30T01:43:12;21.87;;;18.50;;
31464;SDS011;18089;47.428;15.006;2023-03-30T01:45:47;21.10;;;17.57;;
31464;SDS011;18089;47.428;15.006;2023-03-30T01:48:24;22.53;;;18.83;;
31464;SDS011;18089;47.428;15.006;2023-03-30T01:51:01;22.47;;;18.60;;
31464;SDS011;18089;47.428;15.006;2023-03-30T01:53:37;19.13;;;16.73;;
31464;SDS011;18089;47.428;15.006;2023-03-30T01:56:16;18.63;;;16.80;;
31464;SDS011;18089;47.428;15.006;2023-03-30T01:58:51;19.53;;;17.53;;
31464;SDS011;18089;47.428;15.006;2023-03-30T02:01:25;20.40;;;18.40;;
31464;SDS011;18089;47.428;15.006;2023-03-30T02:03:59;20.17;;;18.07;;
31464;SDS011;18089;47.428;15.006;2023-03-30T02:06:34;19.13;;;17.10;;
31464;SDS011;18089;47.428;15.006;2023-03-30T02:09:09;19.77;;;17.93;;
31464;SDS011;18089;47.428;15.006;2023-03-30T02:11:46;19.47;;;17.67;;
31464;SDS011;18089;47.428;15.006;2023-03-30T02:14:23;19.00;;;17.20;;
31464;SDS011;18089;47.428;15.006;2023-03-30T02:16:59;18.57;;;16.77;;
31464;SDS011;18089;47.428;15.006;2023-03-30T02:19:34;20.70;;;18.70;;
31464;SDS011;18089;47.428;15.006;2023-03-30T02:22:06;20.53;;;18.53;;
31464;SDS011;18089;47.428;15.006;2023-03-30T02:24:38;20.73;;;18.57;;
31464;SDS011;18089;47.428;15.006;2023-03-30T02:27:12;25.47;;;20.87;;
31464;SDS011;18089;47.428;15.006;2023-03-30T02:29:45;22.97;;;19.50;;
31464;SDS011;18089;47.428;15.006;2023-03-30T02:32:18;21.53;;;18.77;;
31464;SDS011;18089;47.428;15.006;2023-03-30T02:34:59;23.43;;;20.63;;
31464;SDS011;18089;47.428;15.006;2023-03-30T02:37:49;23.83;;;20.03;;
31464;SDS011;18089;47.428;15.006;2023-03-30T02:40:34;28.67;;;20.27;;
31464;SDS011;18089;47.428;15.006;2023-03-30T02:43:18;22.70;;;19.33;;
31464;SDS011;18089;47.428;15.006;2023-03-30T02:45:57;23.77;;;19.93;;
31464;SDS011;18089;47.428;15.006;2023-03-30T02:48:40;23.53;;;20.40;;
31464;SDS011;18089;47.428;15.006;2023-03-30T02:51:27;22.13;;;19.93;;
31464;SDS011;18089;47.428;15.006;2023-03-30T02:54:10;21.17;;;19.10;;
31464;SDS011;18089;47.428;15.006;2023-03-30T02:56:49;22.27;;;19.13;;
31464;SDS011;18089;47.428;15.006;2023-03-30T02:59:26;23.03;;;20.27;;
31464;SDS011;18089;47.428;15.006;2023-03-30T03:02:03;23.10;;;20.70;;
31464;SDS011;18089;47.428;15.006;2023-03-30T03:04:36;22.17;;;20.10;;
31464;SDS011;18089;47.428;15.006;2023-03-30T03:07:12;22.37;;;19.87;;
31464;SDS011;18089;47.428;15.006;2023-03-30T03:09:45;21.67;;;19.37;;
31464;SDS011;18089;47.428;15.006;2023-03-30T03:12:17;22.17;;;19.97;;
31464;SDS011;18089;47.428;15.006;2023-03-30T03:14:50;21.80;;;19.70;;
31464;SDS011;18089;47.428;15.006;2023-03-30T03:17:23;22.43;;;20.23;;
31464;SDS011;18089;47.428;15.006;2023-03-30T03:19:58;22.63;;;20.30;;
31464;SDS011;18089;47.428;15.006;2023-03-30T03:22:30;22.97;;;20.20;;
31464;SDS011;18089;47.428;15.006;2023-03-30T03:25:03;24.33;;;21.27;;
31464;SDS011;18089;47.428;15.006;2023-03-30T03:27:35;23.93;;;21.43;;
31464;SDS011;18089;47.428;15.006;2023-03-30T03:30:10;24.33;;;20.77;;
31464;SDS011;18089;47.428;15.006;2023-03-30T03:32:42;23.57;;;20.97;;
31464;SDS011;18089;47.428;15.006;2023-03-30T03:35:15;24.30;;;20.43;;
31464;SDS011;18089;47.428;15.006;2023-03-30T03:37:47;23.40;;;21.10;;
31464;SDS011;18089;47.428;15.006;2023-03-30T03:40:19;23.00;;;20.43;;
31464;SDS011;18089;47.428;15.006;2023-03-30T03:42:51;23.47;;;20.33;;
31464;SDS011;18089;47.428;15.006;2023-03-30T03:45:24;22.80;;;20.23;;
31464;SDS011;18089;47.428;15.006;2023-03-30T03:47:56;24.57;;;20.77;;
31464;SDS011;18089;47.428;15.006;2023-03-30T03:50:28;22.97;;;20.23;;
31464;SDS011;18089;47.428;15.006;2023-03-30T03:53:00;23.43;;;20.70;;
31464;SDS011;18089;47.428;15.006;2023-03-30T03:55:32;23.37;;;20.87;;
31464;SDS011;18089;47.428;15.006;2023-03-30T03:58:05;23.40;;;20.67;;
31464;SDS011;18089;47.428;15.006;2023-03-30T04:00:38;21.60;;;19.53;;
31464;SDS011;18089;47.428;15.006;2023-03-30T04:03:10;23.87;;;19.70;;
31464;SDS011;18089;47.428;15.006;2023-03-30T04:05:42;21.60;;;19.43;;
31464;SDS011;18089;47.428;15.006;2023-03-30T04:08:15;23.70;;;20.10;;
31464;SDS011;18089;47.428;15.006;2023-03-30T04:10:47;24.27;;;21.77;;
31464;SDS011;18089;47.428;15.006;2023-03-30T04:13:19;25.97;;;22.37;;
31464;SDS011;18089;47.428;15.006;2023-03-30T04:15:52;27.03;;;23.10;;
31464;SDS011;18089;47.428;15.006;2023-03-30T04:18:24;27.13;;;22.10;;
31464;SDS011;18089;47.428;15.006;2023-03-30T04:21:03;26.63;;;22.53;;
31464;SDS011;18089;47.428;15.006;2023-03-30T04:23:36;27.60;;;22.50;;
31464;SDS011;18089;47.428;15.006;2023-03-30T04:26:09;25.43;;;22.40;;
31464;SDS011;18089;47.428;15.006;2023-03-30T04:28:42;26.70;;;21.03;;
31464;SDS011;18089;47.428;15.006;2023-03-30T04:31:17;24.73;;;22.20;;
31464;SDS011;18089;47.428;15.006;2023-03-30T04:33:51;23.53;;;20.77;;
31464;SDS011;18089;47.428;15.006;2023-03-30T04:36:23;22.90;;;20.60;;
31464;SDS011;18089;47.428;15.006;2023-03-30T04:38:56;29.47;;;23.07;;
31464;SDS011;18089;47.428;15.006;2023-03-30T04:41:29;28.00;;;21.37;;
31464;SDS011;18089;47.428;15.006;2023-03-30T04:44:04;24.50;;;21.97;;
31464;SDS011;18089;47.428;15.006;2023-03-30T04:46:39;25.50;;;22.90;;
31464;SDS011;18089;47.428;15.006;2023-03-30T04:49:11;24.60;;;21.77;;
31464;SDS011;18089;47.428;15.006;2023-03-30T04:51:43;24.37;;;20.97;;
31464;SDS011;18089;47.428;15.006;2023-03-30T04:54:15;25.43;;;22.13;;
31464;SDS011;18089;47.428;15.006;2023-03-30T04:56:47;24.97;;;22.47;;
31464;SDS011;18089;47.428;15.006;2023-03-30T04:59:19;24.40;;;21.67;;
31464;SDS011;18089;47.428;15.006;2023-03-30T05:01:53;25.07;;;20.70;;
31464;SDS011;18089;47.428;15.006;2023-03-30T05:04:25;24.90;;;22.40;;
31464;SDS011;18089;47.428;15.006;2023-03-30T05:06:57;25.00;;;22.30;;
31464;SDS011;18089;47.428;15.006;2023-03-30T05:09:29;22.83;;;20.50;;
31464;SDS011;18089;47.428;15.006;2023-03-30T05:12:01;24.40;;;21.80;;
31464;SDS011;18089;47.428;15.006;2023-03-30T05:14:33;22.73;;;20.10;;
31464;SDS011;18089;47.428;15.006;2023-03-30T05:17:07;26.17;;;23.20;;
31464;SDS011;18089;47.428;15.006;2023-03-30T05:19:39;34.67;;;24.07;;
31464;SDS011;18089;47.428;15.006;2023-03-30T05:22:11;29.17;;;24.57;;
31464;SDS011;18089;47.428;15.006;2023-03-30T05:24:43;30.23;;;23.00;;
31464;SDS011;18089;47.428;15.006;2023-03-30T05:27:15;27.47;;;22.37;;
31464;SDS011;18089;47.428;15.006;2023-03-30T05:29:47;25.20;;;22.17;;
31464;SDS011;18089;47.428;15.006;2023-03-30T05:32:21;28.97;;;21.10;;
31464;SDS011;18089;47.428;15.006;2023-03-30T05:34:53;24.10;;;21.30;;
31464;SDS011;18089;47.428;15.006;2023-03-30T05:37:25;25.50;;;20.57;;
31464;SDS011;18089;47.428;15.006;2023-03-30T05:39:57;29.07;;;20.63;;
31464;SDS011;18089;47.428;15.006;2023-03-30T05:42:29;28.42;;;20.27;;
31464;SDS011;18089;47.428;15.006;2023-03-30T05:45:01;32.27;;;22.00;;
31464;SDS011;18089;47.428;15.006;2023-03-30T05:47:36;27.43;;;22.63;;
31464;SDS011;18089;47.428;15.006;2023-03-30T05:50:08;26.63;;;22.17;;
31464;SDS011;18089;47.428;15.006;2023-03-30T05:52:40;25.43;;;22.67;;
31464;SDS011;18089;47.428;15.006;2023-03-30T05:55:13;25.40;;;22.03;;
31464;SDS011;18089;47.428;15.006;2023-03-30T05:57:45;28.37;;;21.90;;
31464;SDS011;18089;47.428;15.006;2023-03-30T06:00:17;24.23;;;21.63;;
31464;SDS011;18089;47.428;15.006;2023-03-30T06:02:53;22.87;;;20.33;;
31464;SDS011;18089;47.428;15.006;2023-03-30T06:05:26;27.20;;;20.90;;
31464;SDS011;18089;47.428;15.006;2023-03-30T06:07:58;25.57;;;20.73;;
31464;SDS011;18089;47.428;15.006;2023-03-30T06:10:30;25.27;;;20.90;;
31464;SDS011;18089;47.428;15.006;2023-03-30T06:13:03;22.90;;;20.07;;
31464;SDS011;18089;47.428;15.006;2023-03-30T06:15:35;24.27;;;20.30;;
31464;SDS011;18089;47.428;15.006;2023-03-30T06:18:08;24.10;;;20.73;;
31464;SDS011;18089;47.428;15.006;2023-03-30T06:20:41;25.73;;;20.77;;
31464;SDS011;18089;47.428;15.006;2023-03-30T06:23:13;23.37;;;20.80;;
31464;SDS011;18089;47.428;15.006;2023-03-30T06:25:45;23.73;;;20.57;;
31464;SDS011;18089;47.428;15.006;2023-03-30T06:28:21;23.40;;;20.97;;
31464;SDS011;18089;47.428;15.006;2023-03-30T06:30:53;25.67;;;21.80;;
31464;SDS011;18089;47.428;15.006;2023-03-30T06:33:27;24.50;;;21.47;;
31464;SDS011;18089;47.428;15.006;2023-03-30T06:35:59;24.27;;;21.30;;
31464;SDS011;18089;47.428;15.006;2023-03-30T06:38:31;25.07;;;21.20;;
31464;SDS011;18089;47.428;15.006;2023-03-30T06:41:03;22.63;;;20.27;;
31464;SDS011;18089;47.428;15.006;2023-03-30T06:43:39;21.73;;;19.53;;
31464;SDS011;18089;47.428;15.006;2023-03-30T06:46:11;21.17;;;19.07;;
31464;SDS011;18089;47.428;15.006;2023-03-30T06:48:45;22.97;;;20.57;;
31464;SDS011;18089;47.428;15.006;2023-03-30T06:51:17;24.40;;;21.77;;
31464;SDS011;18089;47.428;15.006;2023-03-30T06:53:50;24.87;;;21.13;;
31464;SDS011;18089;47.428;15.006;2023-03-30T06:56:22;25.35;;;22.70;;
31464;SDS011;18089;47.428;15.006;2023-03-30T06:58:54;27.33;;;22.75;;
31464;SDS011;18089;47.428;15.006;2023-03-30T07:01:27;28.23;;;23.67;;
31464;SDS011;18089;47.428;15.006;2023-03-30T07:04:00;30.98;;;24.60;;
31464;SDS011;18089;47.428;15.006;2023-03-30T07:06:33;24.63;;;21.10;;
31464;SDS011;18089;47.428;15.006;2023-03-30T07:09:06;22.40;;;19.97;;
31464;SDS011;18089;47.428;15.006;2023-03-30T07:11:38;20.80;;;18.70;;
31464;SDS011;18089;47.428;15.006;2023-03-30T07:14:10;24.75;;;19.20;;
31464;SDS011;18089;47.428;15.006;2023-03-30T07:16:42;20.15;;;17.73;;
31464;SDS011;18089;47.428;15.006;2023-03-30T07:19:16;22.77;;;17.40;;
31464;SDS011;18089;47.428;15.006;2023-03-30T07:21:48;19.33;;;16.35;;
31464;SDS011;18089;47.428;15.006;2023-03-30T07:24:20;18.17;;;16.25;;
31464;SDS011;18089;47.428;15.006;2023-03-30T07:26:52;18.33;;;15.98;;
31464;SDS011;18089;47.428;15.006;2023-03-30T07:29:24;24.50;;;19.05;;
31464;SDS011;18089;47.428;15.006;2023-03-30T07:31:58;21.38;;;18.08;;
31464;SDS011;18089;47.428;15.006;2023-03-30T07:37:04;17.95;;;15.32;;
31464;SDS011;18089;47.428;15.006;2023-03-30T07:39:37;17.25;;;15.55;;
31464;SDS011;18089;47.428;15.006;2023-03-30T07:42:09;18.85;;;16.73;;
31464;SDS011;18089;47.428;15.006;2023-03-30T07:44:41;17.08;;;15.35;;
31464;SDS011;18089;47.428;15.006;2023-03-30T07:47:13;17.33;;;15.48;;
31464;SDS011;18089;47.428;15.006;2023-03-30T07:49:46;21.30;;;16.50;;
31464;SDS011;18089;47.428;15.006;2023-03-30T07:52:18;19.98;;;16.60;;
31464;SDS011;18089;47.428;15.006;2023-03-30T07:54:50;20.95;;;16.70;;
31464;SDS011;18089;47.428;15.006;2023-03-30T07:57:23;17.33;;;15.02;;
31464;SDS011;18089;47.428;15.006;2023-03-30T07:59:55;18.23;;;16.33;;
31464;SDS011;18089;47.428;15.006;2023-03-30T08:02:27;15.98;;;14.23;;
31464;SDS011;18089;47.428;15.006;2023-03-30T08:05:01;14.63;;;13.13;;
31464;SDS011;18089;47.428;15.006;2023-03-30T08:07:33;25.88;;;15.73;;
31464;SDS011;18089;47.428;15.006;2023-03-30T08:10:06;16.42;;;13.82;;
31464;SDS011;18089;47.428;15.006;2023-03-30T08:12:38;22.30;;;15.77;;
31464;SDS011;18089;47.428;15.006;2023-03-30T08:15:10;20.58;;;14.75;;
31464;SDS011;18089;47.428;15.006;2023-03-30T08:17:42;33.63;;;15.52;;
31464;SDS011;18089;47.428;15.006;2023-03-30T08:20:16;45.08;;;21.98;;
31464;SDS011;18089;47.428;15.006;2023-03-30T08:22:48;36.42;;;19.77;;
31464;SDS011;18089;47.428;15.006;2023-03-30T08:25:20;17.40;;;13.20;;
31464;SDS011;18089;47.428;15.006;2023-03-30T08:27:52;16.77;;;12.85;;
31464;SDS011;18089;47.428;15.006;2023-03-30T08:30:25;13.55;;;12.15;;
31464;SDS011;18089;47.428;15.006;2023-03-30T08:32:57;12.57;;;11.27;;
31464;SDS011;18089;47.428;15.006;2023-03-30T08:35:31;12.52;;;11.23;;
31464;SDS011;18089;47.428;15.006;2023-03-30T08:38:03;13.73;;;11.13;;
31464;SDS011;18089;47.428;15.006;2023-03-30T08:40:37;13.25;;;11.20;;
31464;SDS011;18089;47.428;15.006;2023-03-30T08:43:16;12.65;;;11.18;;
31464;SDS011;18089;47.428;15.006;2023-03-30T08:45:52;58.90;;;35.08;;
31464;SDS011;18089;47.428;15.006;2023-03-30T08:48:26;19.38;;;16.08;;
31464;SDS011;18089;47.428;15.006;2023-03-30T08:51:01;21.08;;;15.85;;
31464;SDS011;18089;47.428;15.006;2023-03-30T08:53:39;12.30;;;10.43;;
31464;SDS011;18089;47.428;15.006;2023-03-30T08:56:11;11.70;;;10.60;;
31464;SDS011;18089;47.428;15.006;2023-03-30T08:58:49;12.32;;;11.00;;
31464;SDS011;18089;47.428;15.006;2023-03-30T09:01:27;17.52;;;14.25;;
31464;SDS011;18089;47.428;15.006;2023-03-30T09:04:06;12.73;;;10.60;;
31464;SDS011;18089;47.428;15.006;2023-03-30T09:06:49;14.18;;;12.45;;
31464;SDS011;18089;47.428;15.006;2023-03-30T09:09:24;13.38;;;11.93;;
31464;SDS011;18089;47.428;15.006;2023-03-30T09:11:58;14.80;;;12.35;;
31464;SDS011;18089;47.428;15.006;2023-03-30T09:14:36;13.93;;;11.73;;
31464;SDS011;18089;47.428;15.006;2023-03-30T09:17:11;23.90;;;17.17;;
31464;SDS011;18089;47.428;15.006;2023-03-30T09:19:48;13.85;;;11.90;;
31464;SDS011;18089;47.428;15.006;2023-03-30T09:22:29;11.65;;;10.50;;
31464;SDS011;18089;47.428;15.006;2023-03-30T09:25:10;13.80;;;10.20;;
31464;SDS011;18089;47.428;15.006;2023-03-30T09:27:45;11.40;;;9.55;;
31464;SDS011;18089;47.428;15.006;2023-03-30T09:30:36;12.30;;;10.68;;
31464;SDS011;18089;47.428;15.006;2023-03-30T09:33:13;11.20;;;10.10;;
31464;SDS011;18089;47.428;15.006;2023-03-30T09:35:55;13.50;;;11.85;;
31464;SDS011;18089;47.428;15.006;2023-03-30T09:38:37;11.38;;;10.20;;
31464;SDS011;18089;47.428;15.006;2023-03-30T09:41:23;12.73;;;10.07;;
31464;SDS011;18089;47.428;15.006;2023-03-30T09:44:01;10.65;;;9.63;;
31464;SDS011;18089;47.428;15.006;2023-03-30T09:46:33;11.05;;;9.95;;
31464;SDS011;18089;47.428;15.006;2023-03-30T09:49:12;11.20;;;10.05;;
31464;SDS011;18089;47.428;15.006;2023-03-30T09:51:52;11.32;;;9.70;;
31464;SDS011;18089;47.428;15.006;2023-03-30T09:54:26;11.32;;;10.23;;
31464;SDS011;18089;47.428;15.006;2023-03-30T09:57:05;11.07;;;9.98;;
31464;SDS011;18089;47.428;15.006;2023-03-30T09:59:54;12.18;;;10.75;;
31464;SDS011;18089;47.428;15.006;2023-03-30T10:02:27;12.50;;;10.20;;
31464;SDS011;18089;47.428;15.006;2023-03-30T10:05:01;12.40;;;11.07;;
31464;SDS011;18089;47.428;15.006;2023-03-30T10:07:35;15.98;;;10.07;;
31464;SDS011;18089;47.428;15.006;2023-03-30T10:10:26;13.10;;;10.23;;
31464;SDS011;18089;47.428;15.006;2023-03-30T10:13:04;11.50;;;10.30;;
31464;SDS011;18089;47.428;15.006;2023-03-30T10:15:38;15.38;;;11.07;;
31464;SDS011;18089;47.428;15.006;2023-03-30T10:18:22;15.82;;;10.98;;
31464;SDS011;18089;47.428;15.006;2023-03-30T10:21:00;15.27;;;11.38;;
31464;SDS011;18089;47.428;15.006;2023-03-30T10:23:33;12.57;;;11.00;;
31464;SDS011;18089;47.428;15.006;2023-03-30T10:26:12;11.25;;;10.15;;
31464;SDS011;18089;47.428;15.006;2023-03-30T10:28:51;13.10;;;11.70;;
31464;SDS011;18089;47.428;15.006;2023-03-30T10:31:23;15.27;;;10.52;;
31464;SDS011;18089;47.428;15.006;2023-03-30T10:33:56;14.32;;;11.27;;
31464;SDS011;18089;47.428;15.006;2023-03-30T10:36:31;12.35;;;10.85;;
31464;SDS011;18089;47.428;15.006;2023-03-30T10:39:07;12.70;;;10.88;;
31464;SDS011;18089;47.428;15.006;2023-03-30T10:41:43;28.20;;;20.90;;
31464;SDS011;18089;47.428;15.006;2023-03-30T10:44:18;34.05;;;21.20;;
31464;SDS011;18089;47.428;15.006;2023-03-30T10:46:55;14.43;;;12.38;;
31464;SDS011;18089;47.428;15.006;2023-03-30T10:49:40;13.70;;;12.25;;
31464;SDS011;18089;47.428;15.006;2023-03-30T10:52:18;16.95;;;12.50;;
31464;SDS011;18089;47.428;15.006;2023-03-30T10:54:53;14.32;;;11.70;;
31464;SDS011;18089;47.428;15.006;2023-03-30T10:57:31;13.95;;;11.00;;
31464;SDS011;18089;47.428;15.006;2023-03-30T11:00:17;12.25;;;10.95;;
31464;SDS011;18089;47.428;15.006;2023-03-30T11:02:53;13.00;;;11.20;;
31464;SDS011;18089;47.428;15.006;2023-03-30T11:05:28;13.65;;;10.95;;
31464;SDS011;18089;47.428;15.006;2023-03-30T11:08:02;13.30;;;11.90;;
31464;SDS011;18089;47.428;15.006;2023-03-30T11:10:36;12.85;;;11.35;;
31464;SDS011;18089;47.428;15.006;2023-03-30T11:13:12;16.58;;;10.98;;
31464;SDS011;18089;47.428;15.006;2023-03-30T11:15:46;12.25;;;10.85;;
31464;SDS011;18089;47.428;15.006;2023-03-30T11:18:22;15.27;;;11.23;;
31464;SDS011;18089;47.428;15.006;2023-03-30T11:20:59;14.18;;;11.88;;
31464;SDS011;18089;47.428;15.006;2023-03-30T11:23:35;13.70;;;11.45;;
31464;SDS011;18089;47.428;15.006;2023-03-30T11:26:10;12.10;;;10.88;;
31464;SDS011;18089;47.428;15.006;2023-03-30T11:28:47;14.50;;;10.77;;
31464;SDS011;18089;47.428;15.006;2023-03-30T11:31:35;11.90;;;10.52;;
31464;SDS011;18089;47.428;15.006;2023-03-30T11:34:15;11.75;;;10.55;;
31464;SDS011;18089;47.428;15.006;2023-03-30T11:36:54;47.80;;;28.15;;
31464;SDS011;18089;47.428;15.006;2023-03-30T11:39:32;15.35;;;11.63;;
31464;SDS011;18089;47.428;15.006;2023-03-30T11:42:11;12.68;;;11.38;;
31464;SDS011;18089;47.428;15.006;2023-03-30T11:44:46;11.40;;;10.18;;
31464;SDS011;18089;47.428;15.006;2023-03-30T11:47:26;12.48;;;10.13;;
31464;SDS011;18089;47.428;15.006;2023-03-30T11:50:13;19.45;;;12.77;;
31464;SDS011;18089;47.428;15.006;2023-03-30T11:52:55;16.33;;;11.35;;
31464;SDS011;18089;47.428;15.006;2023-03-30T11:58:35;16.08;;;10.65;;
31464;SDS011;18089;47.428;15.006;2023-03-30T12:01:20;12.55;;;9.40;;
31464;SDS011;18089;47.428;15.006;2023-03-30T12:04:03;14.20;;;10.02;;
31464;SDS011;18089;47.428;15.006;2023-03-30T12:06:37;12.07;;;8.95;;
31464;SDS011;18089;47.428;15.006;2023-03-30T12:12:02;10.20;;;8.07;;
31464;SDS011;18089;47.428;15.006;2023-03-30T12:14:48;9.27;;;8.27;;
31464;SDS011;18089;47.428;15.006;2023-03-30T12:17:31;9.70;;;8.35;;
31464;SDS011;18089;47.428;15.006;2023-03-30T12:20:12;10.05;;;7.75;;
31464;SDS011;18089;47.428;15.006;2023-03-30T12:22:48;20.60;;;13.60;;
31464;SDS011;18089;47.428;15.006;2023-03-30T12:25:26;12.25;;;7.53;;
31464;SDS011;18089;47.428;15.006;2023-03-30T12:28:08;9.77;;;6.78;;
31464;SDS011;18089;47.428;15.006;2023-03-30T12:30:43;12.15;;;7.03;;
31464;SDS011;18089;47.428;15.006;2023-03-30T12:33:25;9.40;;;6.93;;
31464;SDS011;18089;47.428;15.006;2023-03-30T12:35:58;10.25;;;7.18;;
31464;SDS011;18089;47.428;15.006;2023-03-30T12:38:35;19.58;;;11.88;;
31464;SDS011;18089;47.428;15.006;2023-03-30T12:41:09;9.75;;;7.68;;
31464;SDS011;18089;47.428;15.006;2023-03-30T12:44:01;11.73;;;8.13;;
31464;SDS011;18089;47.428;15.006;2023-03-30T12:46:52;10.63;;;8.45;;
31464;SDS011;18089;47.428;15.006;2023-03-30T12:49:33;16.65;;;8.73;;
31464;SDS011;18089;47.428;15.006;2023-03-30T12:52:12;13.43;;;9.30;;
31464;SDS011;18089;47.428;15.006;2023-03-30T12:57:50;14.73;;;9.65;;
31464;SDS011;18089;47.428;15.006;2023-03-30T13:00:35;15.50;;;9.70;;
31464;SDS011;18089;47.428;15.006;2023-03-30T13:06:14;14.32;;;9.60;;
31464;SDS011;18089;47.428;15.006;2023-03-30T13:08:55;14.55;;;9.57;;
31464;SDS011;18089;47.428;15.006;2023-03-30T13:14:43;11.93;;;8.68;;
31464;SDS011;18089;47.428;15.006;2023-03-30T13:17:16;11.48;;;8.30;;
31464;SDS011;18089;47.428;15.006;2023-03-30T13:20:02;11.95;;;7.93;;
31464;SDS011;18089;47.428;15.006;2023-03-30T13:22:56;11.45;;;8.15;;
31464;SDS011;18089;47.428;15.006;2023-03-30T13:25:36;9.07;;;7.35;;
31464;SDS011;18089;47.428;15.006;2023-03-30T13:31:10;9.55;;;7.13;;
31464;SDS011;18089;47.428;15.006;2023-03-30T13:33:52;10.23;;;7.25;;
31464;SDS011;18089;47.428;15.006;2023-03-30T13:36:30;8.73;;;7.00;;
31464;SDS011;18089;47.428;15.006;2023-03-30T13:39:09;10.45;;;6.63;;
31464;SDS011;18089;47.428;15.006;2023-03-30T13:41:47;10.35;;;6.75;;
31464;SDS011;18089;47.428;15.006;2023-03-30T13:44:37;8.63;;;6.30;;
31464;SDS011;18089;47.428;15.006;2023-03-30T13:47:22;12.73;;;6.75;;
31464;SDS011;18089;47.428;15.006;2023-03-30T13:50:11;8.52;;;6.47;;
31464;SDS011;18089;47.428;15.006;2023-03-30T13:52:49;10.40;;;6.65;;
31464;SDS011;18089;47.428;15.006;2023-03-30T13:55:24;9.75;;;7.10;;
31464;SDS011;18089;47.428;15.006;2023-03-30T13:58:00;18.83;;;7.28;;
31464;SDS011;18089;47.428;15.006;2023-03-30T14:00:34;12.75;;;7.32;;
31464;SDS011;18089;47.428;15.006;2023-03-30T14:03:29;15.98;;;9.23;;
31464;SDS011;18089;47.428;15.006;2023-03-30T14:06:04;9.68;;;7.22;;
31464;SDS011;18089;47.428;15.006;2023-03-30T14:08:38;12.60;;;7.80;;
31464;SDS011;18089;47.428;15.006;2023-03-30T14:11:14;9.23;;;6.93;;
31464;SDS011;18089;47.428;15.006;2023-03-30T14:13:48;10.77;;;6.95;;
31464;SDS011;18089;47.428;15.006;2023-03-30T14:16:22;10.10;;;7.72;;
31464;SDS011;18089;47.428;15.006;2023-03-30T14:19:02;13.27;;;6.97;;
31464;SDS011;18089;47.428;15.006;2023-03-30T14:21:40;13.65;;;7.90;;
31464;SDS011;18089;47.428;15.006;2023-03-30T14:24:15;12.73;;;7.63;;
31464;SDS011;18089;47.428;15.006;2023-03-30T14:26:49;9.18;;;7.88;;
31464;SDS011;18089;47.428;15.006;2023-03-30T14:29:21;9.57;;;7.55;;
31464;SDS011;18089;47.428;15.006;2023-03-30T14:31:53;10.40;;;8.32;;
31464;SDS011;18089;47.428;15.006;2023-03-30T14:34:25;11.00;;;8.40;;
31464;SDS011;18089;47.428;15.006;2023-03-30T14:36:59;11.35;;;8.07;;
31464;SDS011;18089;47.428;15.006;2023-03-30T14:39:32;17.17;;;9.52;;
31464;SDS011;18089;47.428;15.006;2023-03-30T14:42:14;17.02;;;9.13;;
31464;SDS011;18089;47.428;15.006;2023-03-30T14:44:48;11.98;;;8.60;;
31464;SDS011;18089;47.428;15.006;2023-03-30T14:47:22;19.95;;;10.75;;
31464;SDS011;18089;47.428;15.006;2023-03-30T14:49:56;23.27;;;9.60;;
31464;SDS011;18089;47.428;15.006;2023-03-30T14:52:30;13.70;;;8.90;;
31464;SDS011;18089;47.428;15.006;2023-03-30T14:55:03;19.75;;;9.50;;
31464;SDS011;18089;47.428;15.006;2023-03-30T14:57:38;14.65;;;9.02;;
31464;SDS011;18089;47.428;15.006;2023-03-30T15:00:11;18.10;;;11.68;;
31464;SDS011;18089;47.428;15.006;2023-03-30T15:02:50;34.25;;;23.42;;
31464;SDS011;18089;47.428;15.006;2023-03-30T15:05:24;72.18;;;48.47;;
31464;SDS011;18089;47.428;15.006;2023-03-30T15:07:58;23.63;;;14.50;;
31464;SDS011;18089;47.428;15.006;2023-03-30T15:10:34;23.73;;;12.68;;
31464;SDS011;18089;47.428;15.006;2023-03-30T15:13:16;19.10;;;11.95;;
31464;SDS011;18089;47.428;15.006;2023-03-30T15:15:51;18.60;;;11.35;;
31464;SDS011;18089;47.428;15.006;2023-03-30T15:18:24;17.90;;;12.63;;
31464;SDS011;18089;47.428;15.006;2023-03-30T15:20:57;14.70;;;9.77;;
31464;SDS011;18089;47.428;15.006;2023-03-30T15:23:30;17.17;;;9.63;;
31464;SDS011;18089;47.428;15.006;2023-03-30T15:26:04;16.35;;;8.57;;
31464;SDS011;18089;47.428;15.006;2023-03-30T15:28:41;16.95;;;11.23;;